Time;durP1;ratioP1;P1;durP2;ratioP2;P2;SDS_P1;SDS_P2;PMS_P1;PMS_P2;Temp;Humidity;BMP_temperature;BMP_pressure;BME280_temperature;BME280_humidity;BME280_pressure;Samples;Min_cycle;Max_cycle;Signal;HPM_P1;HPM_P2
2023/03/07 00:01:29;;;;;;;43.60;29.90;;;;;;;-0.00;71.36;99159.70;113149;1238;21939;-76
2023/03/07 00:03:59;;;;;;;43.20;32.20;;;;;;;0.02;71.57;99157.80;112930;1238;21952;-75
2023/03/07 00:06:29;;;;;;;45.80;32.00;;;;;;;0.06;71.78;99157.56;113244;1233;21894;-74
2023/03/07 00:09:02;;;;;;;45.10;33.30;;;;;;;0.10;71.72;99156.32;113383;1233;23018;-76
2023/03/07 00:11:30;;;;;;;42.80;30.70;;;;;;;0.12;71.63;99154.73;113473;1233;23019;-76
2023/03/07 00:14:10;;;;;;;41.70;31.10;;;;;;;0.14;71.54;99150.77;113577;1233;22944;-76
2023/03/07 00:16:39;;;;;;;43.00;28.70;;;;;;;0.13;71.50;99149.26;113260;1233;21969;-76
2023/03/07 00:19:09;;;;;;;37.90;26.00;;;;;;;0.12;71.41;99148.08;113545;1233;22015;-77
2023/03/07 00:21:38;;;;;;;33.60;24.20;;;;;;;0.11;71.48;99146.36;113455;1233;21944;-76
2023/03/07 00:24:09;;;;;;;37.10;26.60;;;;;;;0.12;71.54;99146.20;113714;1233;22997;-77
2023/03/07 00:26:38;;;;;;;38.70;28.80;;;;;;;0.12;71.48;99145.34;113441;1228;23831;-77
2023/03/07 00:29:09;;;;;;;35.10;26.10;;;;;;;0.09;71.50;99142.64;113529;1233;21960;-76
2023/03/07 00:31:38;;;;;;;39.00;26.70;;;;;;;0.06;71.54;99138.56;113461;1233;21955;-75
2023/03/07 00:34:06;;;;;;;34.60;25.90;;;;;;;0.05;71.58;99132.94;113449;1233;21986;-76
2023/03/07 00:36:35;;;;;;;29.90;25.70;;;;;;;0.04;71.58;99129.73;113479;1233;22158;-77
2023/03/07 00:39:07;;;;;;;37.80;27.50;;;;;;;0.01;71.52;99127.02;113298;1233;24254;-74
2023/03/07 00:41:36;;;;;;;37.30;29.30;;;;;;;-0.00;71.68;99130.27;113555;1233;22993;-75
2023/03/07 00:44:06;;;;;;;35.50;27.90;;;;;;;-0.02;71.66;99126.19;113531;1233;21955;-76
2023/03/07 00:46:37;;;;;;;37.40;28.70;;;;;;;-0.02;71.77;99126.55;113466;1233;21958;-75
2023/03/07 00:49:06;;;;;;;38.50;31.30;;;;;;;-0.03;71.76;99127.59;112569;1240;22958;-75
2023/03/07 00:51:35;;;;;;;40.20;28.20;;;;;;;-0.04;71.67;99124.35;112722;1241;22402;-77
2023/03/07 00:54:04;;;;;;;37.60;29.90;;;;;;;-0.02;71.73;99123.98;112808;1240;22969;-77
2023/03/07 00:56:33;;;;;;;39.40;32.00;;;;;;;0.01;71.77;99124.11;112802;1240;22005;-76
2023/03/07 00:59:03;;;;;;;40.90;31.00;;;;;;;0.04;71.94;99121.49;112917;1241;23823;-76
2023/03/07 01:01:31;;;;;;;45.30;35.50;;;;;;;0.04;71.81;99116.54;112763;1241;22021;-76
2023/03/07 01:04:00;;;;;;;43.70;34.30;;;;;;;0.04;71.72;99117.58;112408;1240;21977;-76
2023/03/07 01:06:32;;;;;;;45.50;36.50;;;;;;;0.04;71.69;99117.73;113016;1233;21951;-74
2023/03/07 01:09:06;;;;;;;44.30;35.90;;;;;;;0.06;71.74;99119.42;113393;1233;21946;-75
2023/03/07 01:11:36;;;;;;;47.90;37.80;;;;;;;0.09;71.79;99114.92;113544;1233;21995;-75
2023/03/07 01:14:06;;;;;;;45.10;35.80;;;;;;;0.12;71.78;99112.99;113415;1233;23000;-75
2023/03/07 01:16:37;;;;;;;47.90;36.10;;;;;;;0.14;71.64;99108.35;113555;1233;21951;-76
2023/03/07 01:19:11;;;;;;;46.90;36.90;;;;;;;0.11;71.47;99110.96;113281;1233;22163;-74
2023/03/07 01:21:42;;;;;;;48.10;37.40;;;;;;;0.06;71.44;99108.80;113524;1233;21921;-76
2023/03/07 01:24:14;;;;;;;48.60;36.30;;;;;;;0.06;71.57;99107.10;113525;1233;21987;-75
2023/03/07 01:26:43;;;;;;;44.30;34.60;;;;;;;0.05;71.59;99104.03;113347;1233;22795;-75
2023/03/07 01:29:14;;;;;;;43.00;34.40;;;;;;;0.05;71.69;99101.46;113475;1233;24357;-75
2023/03/07 01:31:43;;;;;;;47.70;38.50;;;;;;;0.06;71.68;99098.72;113449;1233;22090;-75
2023/03/07 01:34:12;;;;;;;43.90;35.80;;;;;;;0.07;71.73;99099.89;113325;1232;21956;-76
2023/03/07 01:36:42;;;;;;;38.40;31.20;;;;;;;0.09;71.67;99096.45;113354;1232;21954;-74
2023/03/07 01:39:16;;;;;;;38.90;30.60;;;;;;;0.07;71.40;99090.48;113406;1224;23089;-75
2023/03/07 01:42:11;;;;;;;36.40;30.20;;;;;;;0.04;71.51;99088.65;113487;1233;21949;-74
2023/03/07 01:45:07;;;;;;;34.80;29.30;;;;;;;0.05;71.59;99082.13;113500;1233;22642;-76
2023/03/07 01:47:48;;;;;;;34.50;28.80;;;;;;;0.03;71.46;99073.96;113702;1233;22999;-75
2023/03/07 01:50:17;;;;;;;37.30;30.60;;;;;;;-0.06;71.05;99075.47;113496;1233;23886;-75
2023/03/07 01:52:59;;;;;;;38.80;31.00;;;;;;;-0.18;71.15;99077.34;113364;1233;23732;-75
2023/03/07 01:55:33;;;;;;;35.00;30.10;;;;;;;-0.22;71.48;99073.82;113546;1233;21941;-76
2023/03/07 01:58:13;;;;;;;37.70;30.60;;;;;;;-0.23;71.48;99066.98;113501;1233;22086;-75
2023/03/07 02:00:44;;;;;;;39.50;32.00;;;;;;;-0.24;71.53;99061.70;113385;1233;21944;-75
2023/03/07 02:03:35;;;;;;;35.30;30.70;;;;;;;-0.25;71.44;99060.17;113563;1233;21976;-74
2023/03/07 02:06:12;;;;;;;39.70;30.30;;;;;;;-0.29;71.31;99057.00;113285;1233;22623;-75
2023/03/07 02:08:50;;;;;;;39.00;31.90;;;;;;;-0.47;70.71;99057.06;113410;1232;23558;-75
2023/03/07 02:11:22;;;;;;;40.10;33.50;;;;;;;-0.57;71.04;99054.30;113441;1233;21925;-74
2023/03/07 02:13:55;;;;;;;42.40;32.80;;;;;;;-0.65;71.02;99053.03;113175;1233;21927;-74
2023/03/07 02:16:24;;;;;;;37.60;31.90;;;;;;;-0.74;71.07;99053.67;113542;1233;21958;-74
2023/03/07 02:18:54;;;;;;;50.20;39.90;;;;;;;-0.78;71.25;99053.21;112885;1239;22954;-76
2023/03/07 02:21:53;;;;;;;44.90;36.80;;;;;;;-0.82;71.28;99055.31;112982;1239;21945;-74
2023/03/07 02:24:48;;;;;;;50.30;39.70;;;;;;;-0.86;71.42;99053.98;112920;1239;21954;-75
2023/03/07 02:27:17;;;;;;;47.10;41.10;;;;;;;-0.95;71.28;99052.56;112965;1239;24035;-75
2023/03/07 02:29:46;;;;;;;51.30;40.20;;;;;;;-1.02;71.38;99054.85;112956;1239;23702;-77
2023/03/07 02:32:14;;;;;;;47.90;41.50;;;;;;;-0.98;71.73;99052.25;113132;1239;22020;-75
2023/03/07 02:34:48;;;;;;;45.60;40.40;;;;;;;-0.90;72.00;99050.10;113110;1239;23009;-75
2023/03/07 02:37:32;;;;;;;47.90;42.30;;;;;;;-0.84;71.86;99055.67;112932;1240;23013;-75
2023/03/07 02:40:08;;;;;;;50.90;43.50;;;;;;;-0.89;71.46;99053.34;112607;1240;21956;-75
2023/03/07 02:42:41;;;;;;;54.90;46.40;;;;;;;-0.95;71.38;99051.54;112875;1233;22516;-77
2023/03/07 02:45:17;;;;;;;48.40;43.10;;;;;;;-0.99;71.40;99048.34;113284;1232;23481;-77
2023/03/07 02:47:46;;;;;;;53.80;47.00;;;;;;;-1.07;71.39;99048.42;113634;1232;23591;-75
2023/03/07 02:50:17;;;;;;;53.30;46.40;;;;;;;-1.09;71.74;99041.98;113382;1232;21965;-75
2023/03/07 02:52:49;;;;;;;49.30;43.80;;;;;;;-1.05;71.84;99038.66;113342;1232;23568;-76
2023/03/07 02:55:17;;;;;;;51.70;44.80;;;;;;;-1.11;71.58;99033.97;113518;1233;23668;-77
2023/03/07 02:57:53;;;;;;;54.20;46.60;;;;;;;-1.22;71.53;99031.02;113406;1234;22821;-78
2023/03/07 03:00:22;;;;;;;50.50;45.00;;;;;;;-1.27;71.67;99023.71;113306;1235;22721;-76
2023/03/07 03:03:07;;;;;;;56.10;47.20;;;;;;;-1.27;71.83;99024.05;111663;1234;2174746;-76
2023/03/07 03:05:39;;;;;;;56.80;50.00;;;;;;;-1.32;71.79;99019.88;113385;1234;22040;-76
2023/03/07 03:08:08;;;;;;;62.80;50.10;;;;;;;-1.45;71.58;99019.99;113551;1233;21938;-76
2023/03/07 03:10:37;;;;;;;54.60;47.00;;;;;;;-1.56;71.77;99016.02;113302;1233;21944;-76
2023/03/07 03:13:10;;;;;;;59.70;52.90;;;;;;;-1.65;71.86;99014.23;112426;1240;22007;-76
2023/03/07 03:15:38;;;;;;;56.20;50.00;;;;;;;-1.70;71.95;99012.06;112716;1241;21966;-75
2023/03/07 03:18:07;;;;;;;54.60;48.70;;;;;;;-1.75;72.12;99009.88;112986;1240;21936;-75
2023/03/07 03:20:39;;;;;;;62.20;49.90;;;;;;;-1.79;72.08;99005.15;113066;1240;22003;-75
2023/03/07 03:23:10;;;;;;;57.00;45.30;;;;;;;-1.83;72.14;99005.17;112940;1240;23652;-76
2023/03/07 03:25:38;;;;;;;55.20;48.20;;;;;;;-1.86;72.21;99001.63;112897;1240;21966;-76
2023/03/07 03:28:09;;;;;;;56.40;47.50;;;;;;;-1.86;72.48;98998.05;112737;1239;21946;-75
2023/03/07 03:30:39;;;;;;;57.70;48.00;;;;;;;-1.84;72.49;99001.61;113020;1233;22890;-75
2023/03/07 03:33:07;;;;;;;58.80;50.00;;;;;;;-1.85;72.41;99001.11;113752;1228;21908;-74
2023/03/07 03:35:38;;;;;;;50.90;42.90;;;;;;;-1.88;72.33;99002.84;113314;1233;21972;-76
2023/03/07 03:38:07;;;;;;;51.50;42.00;;;;;;;-1.94;72.36;99003.41;113707;1230;23012;-77
2023/03/07 03:40:37;;;;;;;44.40;37.90;;;;;;;-2.02;72.46;99008.42;112712;1240;23716;-76
2023/03/07 03:43:06;;;;;;;42.60;37.70;;;;;;;-2.10;72.44;99008.14;112812;1239;21979;-76
2023/03/07 03:45:35;;;;;;;46.80;40.10;;;;;;;-2.15;72.39;99007.16;112784;1240;21929;-76
2023/03/07 03:48:07;;;;;;;45.10;38.90;;;;;;;-2.17;72.69;99002.23;112877;1240;22999;-76
2023/03/07 03:50:37;;;;;;;49.10;40.40;;;;;;;-2.15;72.91;99001.36;113114;1238;22435;-76
2023/03/07 03:53:06;;;;;;;53.50;42.10;;;;;;;-2.09;73.21;98994.67;112957;1240;21970;-75
2023/03/07 03:55:34;;;;;;;56.60;42.20;;;;;;;-2.01;73.31;98994.44;112754;1240;21974;-75
2023/03/07 03:58:03;;;;;;;49.80;42.70;;;;;;;-1.95;73.24;98994.55;113112;1233;21965;-75
2023/03/07 04:00:32;;;;;;;48.80;42.30;;;;;;;-1.95;73.17;98993.86;113538;1233;22183;-75
2023/03/07 04:03:02;;;;;;;52.60;42.60;;;;;;;-1.94;73.20;98990.78;113309;1233;21970;-76
2023/03/07 04:05:33;;;;;;;53.50;44.30;;;;;;;-1.92;73.29;98991.95;113376;1233;22723;-77
2023/03/07 04:08:02;;;;;;;53.10;44.60;;;;;;;-1.85;73.42;98992.23;113340;1233;23810;-75
2023/03/07 04:10:31;;;;;;;54.90;45.60;;;;;;;-1.81;73.36;98988.27;113409;1233;23611;-75
2023/03/07 04:13:00;;;;;;;52.40;44.40;;;;;;;-1.80;73.28;98986.73;113446;1233;23652;-76
2023/03/07 04:15:29;;;;;;;52.60;44.10;;;;;;;-1.79;73.32;98979.90;113296;1233;23693;-76
2023/03/07 04:17:58;;;;;;;55.20;43.30;;;;;;;-1.81;73.16;98973.09;113494;1232;21939;-74
2023/03/07 04:20:27;;;;;;;53.70;42.70;;;;;;;-1.92;72.79;98975.42;113220;1238;21955;-77
2023/03/07 04:22:55;;;;;;;52.10;42.50;;;;;;;-2.00;72.91;98966.95;113029;1238;21989;-76
2023/03/07 04:25:24;;;;;;;62.00;47.00;;;;;;;-2.05;72.84;98966.66;112493;1243;21974;-77
2023/03/07 04:27:55;;;;;;;57.60;45.10;;;;;;;-2.08;73.07;98965.66;112179;1243;23670;-77
2023/03/07 04:30:25;;;;;;;60.00;48.00;;;;;;;-2.10;73.03;98958.70;112338;1243;21996;-76
2023/03/07 04:32:54;;;;;;;189.70;110.80;;;;;;;-2.18;72.91;98958.95;112103;1243;21959;-76
2023/03/07 04:35:23;;;;;;;140.60;94.50;;;;;;;-2.29;72.80;98953.24;112422;1243;22400;-76
2023/03/07 04:37:52;;;;;;;234.20;125.30;;;;;;;-2.39;72.89;98949.92;112116;1239;23125;-75
2023/03/07 04:40:21;;;;;;;143.00;86.00;;;;;;;-2.44;73.05;98942.45;112470;1239;23012;-76
2023/03/07 04:42:49;;;;;;;368.10;205.10;;;;;;;-2.48;73.07;98935.84;112800;1233;21950;-76
2023/03/07 04:45:20;;;;;;;192.20;118.50;;;;;;;-2.53;73.20;98930.44;113315;1233;23035;-75
2023/03/07 04:47:49;;;;;;;116.70;78.30;;;;;;;-2.57;73.25;98925.52;113513;1226;22670;-77
2023/03/07 04:50:19;;;;;;;77.90;57.80;;;;;;;-2.64;73.35;98923.19;113475;1231;22617;-76
2023/03/07 04:52:49;;;;;;;79.20;58.40;;;;;;;-2.74;73.31;98916.60;113205;1233;21899;-76
2023/03/07 04:55:18;;;;;;;79.10;61.70;;;;;;;-2.83;73.51;98918.38;113626;1233;21922;-76
2023/03/07 04:57:50;;;;;;;74.00;58.10;;;;;;;-2.92;73.58;98917.58;113639;1232;21932;-76
2023/03/07 05:00:19;;;;;;;83.80;63.00;;;;;;;-2.96;73.70;98914.71;113449;1233;21952;-75
2023/03/07 05:02:49;;;;;;;79.10;58.30;;;;;;;-2.97;73.87;98914.89;113585;1233;23821;-75
2023/03/07 05:05:22;;;;;;;86.70;62.80;;;;;;;-3.00;74.20;98908.95;112822;1239;21988;-75
2023/03/07 05:07:50;;;;;;;79.90;58.30;;;;;;;-3.01;74.15;98908.79;112849;1239;21944;-74
2023/03/07 05:10:19;;;;;;;87.20;61.80;;;;;;;-3.01;74.21;98906.73;112848;1239;24293;-77
2023/03/07 05:12:50;;;;;;;78.20;56.60;;;;;;;-3.02;74.23;98906.58;111989;1246;23729;-75
2023/03/07 05:15:19;;;;;;;73.00;53.60;;;;;;;-3.02;74.42;98901.81;112133;1245;23577;-75
2023/03/07 05:17:47;;;;;;;74.50;56.90;;;;;;;-3.04;74.42;98898.09;112021;1246;21944;-75
2023/03/07 05:20:16;;;;;;;94.70;65.90;;;;;;;-3.04;74.50;98895.70;112053;1246;21962;-76
2023/03/07 05:22:45;;;;;;;84.00;60.80;;;;;;;-3.04;74.66;98895.70;112138;1241;21961;-75
2023/03/07 05:25:17;;;;;;;78.20;56.90;;;;;;;-3.03;74.68;98893.48;112782;1241;21978;-79
2023/03/07 05:27:46;;;;;;;71.40;57.30;;;;;;;-3.01;74.76;98893.13;112477;1241;23718;-76
2023/03/07 05:30:15;;;;;;;71.90;54.60;;;;;;;-2.99;74.77;98892.27;112168;1237;23652;-76
2023/03/07 05:32:46;;;;;;;64.00;50.50;;;;;;;-2.99;74.80;98890.05;113018;1237;21953;-76
2023/03/07 05:35:23;;;;;;;62.10;49.50;;;;;;;-2.98;74.90;98888.34;113086;1238;22957;-77
2023/03/07 05:37:53;;;;;;;65.80;49.70;;;;;;;-2.96;74.94;98882.20;112891;1237;22500;-77
2023/03/07 05:40:21;;;;;;;74.50;58.80;;;;;;;-2.93;75.03;98879.28;113255;1237;21971;-77
2023/03/07 05:42:50;;;;;;;73.80;57.90;;;;;;;-2.91;74.98;98879.09;113154;1237;23112;-76
2023/03/07 05:45:21;;;;;;;72.10;56.80;;;;;;;-2.90;74.98;98878.08;112628;1237;22821;-77
2023/03/07 05:47:55;;;;;;;85.20;61.30;;;;;;;-2.87;75.15;98874.65;112957;1233;22975;-77
2023/03/07 05:50:42;;;;;;;;;;;;;;;-2.82;75.19;98873.77;113547;1232;22996;-77
2023/03/07 05:53:17;;;;;;;88.10;59.00;;;;;;;-2.82;75.43;98868.66;113524;1233;22391;-75
2023/03/07 05:55:55;;;;;;;81.00;57.90;;;;;;;-2.77;75.53;98870.48;113112;1238;21987;-77
2023/03/07 05:58:32;;;;;;;80.50;60.40;;;;;;;-2.71;75.43;98875.04;113232;1235;22697;-77
2023/03/07 06:01:11;;;;;;;76.50;57.60;;;;;;;-2.67;75.45;98872.63;112904;1238;22171;-78
2023/03/07 06:03:50;;;;;;;79.50;66.30;;;;;;;-2.62;75.57;98870.54;113146;1238;21940;-76
2023/03/07 06:06:32;;;;;;;74.40;57.30;;;;;;;-2.55;75.73;98865.04;113144;1238;23014;-77
2023/03/07 06:09:11;;;;;;;72.70;54.60;;;;;;;-2.48;75.80;98859.69;113064;1238;21954;-77
2023/03/07 06:11:43;;;;;;;76.50;58.60;;;;;;;-2.40;75.98;98855.20;112764;1238;21976;-77
2023/03/07 06:14:11;;;;;;;84.20;61.60;;;;;;;-2.33;76.05;98855.81;113116;1232;21937;-79
2023/03/07 06:16:46;;;;;;;94.60;67.40;;;;;;;-2.23;76.02;98853.50;113334;1233;21960;-78
2023/03/07 06:19:18;;;;;;;71.90;58.10;;;;;;;-2.13;76.14;98853.38;113393;1233;22150;-77
2023/03/07 06:21:55;;;;;;;92.70;67.70;;;;;;;-2.04;76.25;98848.00;113220;1233;23468;-76
2023/03/07 06:24:24;;;;;;;78.70;56.20;;;;;;;-1.93;76.20;98844.48;113364;1233;22139;-78
2023/03/07 06:26:54;;;;;;;64.70;47.70;;;;;;;-1.82;76.26;98844.53;113371;1232;21903;-78
2023/03/07 06:29:26;;;;;;;72.50;50.10;;;;;;;-1.71;76.37;98842.86;113441;1232;21895;-77
2023/03/07 06:31:59;;;;;;;68.30;49.10;;;;;;;-1.62;76.30;98838.64;113394;1234;21949;-77
2023/03/07 06:34:27;;;;;;;78.10;55.80;;;;;;;-1.52;76.38;98834.27;113714;1232;22951;-79
2023/03/07 06:36:58;;;;;;;78.90;55.40;;;;;;;-1.42;76.44;98830.20;113524;1233;23873;-76
2023/03/07 06:39:30;;;;;;;72.90;52.00;;;;;;;-1.30;76.51;98830.21;113550;1233;23004;-77
2023/03/07 06:42:03;;;;;;;64.90;49.20;;;;;;;-1.18;76.48;98828.17;113109;1233;21937;-77
2023/03/07 06:44:35;;;;;;;74.50;53.30;;;;;;;-1.09;76.50;98825.13;113577;1233;21929;-76
2023/03/07 06:47:04;;;;;;;74.90;54.90;;;;;;;-0.97;76.70;98822.89;113505;1230;23015;-75
2023/03/07 06:49:43;;;;;;;69.30;50.50;;;;;;;-0.86;76.70;98815.20;113321;1233;21918;-77
2023/03/07 06:52:16;;;;;;;67.80;49.00;;;;;;;-0.75;76.69;98812.11;113364;1233;21951;-77
2023/03/07 06:54:50;;;;;;;69.00;51.20;;;;;;;-0.63;76.68;98810.38;113494;1232;21953;-76
2023/03/07 06:57:22;;;;;;;65.30;50.80;;;;;;;-0.54;76.89;98806.13;113540;1232;22818;-81
2023/03/07 06:59:56;;;;;;;65.00;47.90;;;;;;;-0.40;77.10;98804.35;113617;1233;21934;-77
2023/03/07 07:02:36;;;;;;;75.60;56.10;;;;;;;-0.21;77.25;98801.77;112583;1241;22724;-75
2023/03/07 07:05:08;;;;;;;75.20;56.10;;;;;;;-0.02;77.09;98796.97;112484;1241;21971;-75
2023/03/07 07:07:43;;;;;;;71.70;54.90;;;;;;;0.13;77.09;98797.20;112594;1241;21944;-77
2023/03/07 07:10:17;;;;;;;74.20;55.30;;;;;;;0.23;76.86;98794.59;111848;1246;23385;-77
2023/03/07 07:12:46;;;;;;;84.40;64.50;;;;;;;0.30;76.78;98789.80;112071;1246;21961;-78
2023/03/07 07:15:20;;;;;;;113.10;77.00;;;;;;;0.41;76.87;98789.43;111772;1246;22817;-77
2023/03/07 07:17:50;;;;;;;104.60;75.00;;;;;;;0.51;76.65;98784.58;111817;1246;22805;-78
2023/03/07 07:20:20;;;;;;;93.80;69.10;;;;;;;0.61;76.80;98778.02;111976;1238;21925;-77
2023/03/07 07:22:51;;;;;;;123.50;86.90;;;;;;;0.69;76.66;98776.30;112777;1239;22272;-79
2023/03/07 07:25:20;;;;;;;104.50;71.10;;;;;;;0.79;76.73;98775.22;112783;1239;23306;-77
2023/03/07 07:27:55;;;;;;;84.60;61.10;;;;;;;0.83;76.55;98772.91;112972;1232;23657;-76
2023/03/07 07:30:26;;;;;;;79.60;58.60;;;;;;;0.82;76.37;98771.38;112991;1239;23032;-78
2023/03/07 07:33:00;;;;;;;81.80;61.70;;;;;;;0.83;76.32;98771.02;112954;1239;23610;-77
2023/03/07 07:35:34;;;;;;;78.70;60.90;;;;;;;0.89;76.56;98770.86;112749;1239;22924;-78
2023/03/07 07:38:07;;;;;;;73.40;57.30;;;;;;;1.00;76.56;98762.21;112903;1239;23575;-77
2023/03/07 07:40:44;;;;;;;73.00;55.20;;;;;;;1.11;76.59;98759.89;113029;1239;24248;-75
2023/03/07 07:43:17;;;;;;;73.40;59.90;;;;;;;1.19;76.44;98761.93;113126;1239;23588;-78
2023/03/07 07:45:50;;;;;;;73.90;59.10;;;;;;;1.20;76.13;98759.84;112631;1239;22703;-77
2023/03/07 07:48:20;;;;;;;79.40;61.70;;;;;;;1.19;76.04;98758.66;112967;1234;23601;-77
2023/03/07 07:51:02;;;;;;;73.10;59.40;;;;;;;1.21;76.17;98758.44;113430;1233;23565;-77
2023/03/07 07:53:36;;;;;;;81.50;63.10;;;;;;;1.30;76.27;98756.50;113478;1233;24316;-78
2023/03/07 07:56:06;;;;;;;75.70;61.50;;;;;;;1.41;76.21;98758.79;113597;1233;21964;-77
2023/03/07 07:58:43;;;;;;;73.50;57.10;;;;;;;1.50;76.20;98749.83;113517;1233;23562;-79
2023/03/07 08:01:14;;;;;;;;;;;;;;;1.66;76.52;98745.95;113803;1233;23539;-78
2023/03/07 08:03:44;;;;;;;78.00;61.40;;;;;;;1.85;77.02;98739.95;113603;1233;21935;-79
2023/03/07 08:06:27;;;;;;;76.90;60.50;;;;;;;2.15;76.98;98733.77;113450;1233;23578;-77
2023/03/07 08:09:04;;;;;;;;;;;;;;;2.44;76.45;98731.17;113396;1233;23006;-82
2023/03/07 08:11:36;;;;;;;98.30;73.00;;;;;;;2.65;76.61;98726.58;113009;1237;21930;-79
2023/03/07 08:14:04;;;;;;;73.40;59.90;;;;;;;2.98;76.91;98722.96;112763;1239;21953;-78
2023/03/07 08:16:35;;;;;;;72.00;61.20;;;;;;;3.32;76.25;98717.52;112791;1239;21942;-78
2023/03/07 08:19:09;;;;;;;67.40;57.50;;;;;;;3.64;75.44;98718.48;112887;1239;21981;-78
2023/03/07 08:21:45;;;;;;;83.80;65.90;;;;;;;3.94;74.65;98719.47;112919;1239;21950;-78
2023/03/07 08:24:17;;;;;;;113.30;83.50;;;;;;;4.31;74.56;98719.09;112592;1239;21958;-77
2023/03/07 08:26:46;;;;;;;67.40;56.30;;;;;;;4.66;73.20;98722.05;112474;1239;21934;-79
2023/03/07 08:29:19;;;;;;;55.70;49.40;;;;;;;4.91;72.36;98720.55;112908;1239;22478;-78
2023/03/07 08:31:50;;;;;;;61.40;54.50;;;;;;;5.17;71.33;98716.19;113081;1236;22959;-77
2023/03/07 08:34:20;;;;;;;60.00;52.90;;;;;;;5.19;69.61;98716.11;112660;1238;21964;-76
2023/03/07 08:36:51;;;;;;;;;;;;;;;5.24;69.63;98709.69;113119;1233;21930;-78
2023/03/07 08:39:25;;;;;;;72.90;59.40;;;;;;;5.31;69.87;98705.95;113747;1233;21943;-78
2023/03/07 08:41:55;;;;;;;59.30;52.20;;;;;;;5.45;69.47;98703.10;112946;1236;23724;-78
2023/03/07 08:44:26;;;;;;;61.30;54.50;;;;;;;5.54;68.15;98700.30;112963;1232;21962;-76
2023/03/07 08:47:03;;;;;;;58.40;52.10;;;;;;;5.61;67.88;98692.39;112765;1240;22629;-79
2023/03/07 08:49:35;;;;;;;60.10;53.40;;;;;;;5.83;67.45;98686.77;112065;1247;23828;-76
2023/03/07 08:52:05;;;;;;;60.70;52.30;;;;;;;6.11;67.53;98684.85;111966;1246;23707;-77
2023/03/07 08:54:36;;;;;;;63.10;53.40;;;;;;;6.46;67.41;98680.81;111550;1251;21966;-75
2023/03/07 08:57:07;;;;;;;63.00;55.80;;;;;;;6.78;66.64;98675.63;111699;1251;23715;-76
2023/03/07 08:59:42;;;;;;;60.50;54.10;;;;;;;7.00;64.63;98670.05;111701;1245;22395;-76
2023/03/07 09:02:11;;;;;;;58.90;52.60;;;;;;;7.00;63.41;98663.15;112193;1245;22968;-75
2023/03/07 09:04:40;;;;;;;64.30;57.50;;;;;;;7.07;63.44;98655.19;112129;1245;22411;-76
2023/03/07 09:07:17;;;;;;;60.50;53.80;;;;;;;7.24;62.96;98653.79;111803;1244;22860;-78
2023/03/07 09:09:51;;;;;;;55.80;49.50;;;;;;;7.34;62.19;98654.14;112372;1244;22003;-79
2023/03/07 09:12:23;;;;;;;57.60;51.60;;;;;;;7.48;62.00;98652.41;112380;1240;23619;-78
2023/03/07 09:14:53;;;;;;;56.20;50.40;;;;;;;7.69;61.43;98654.77;112302;1242;22017;-77
2023/03/07 09:17:30;;;;;;;60.00;53.80;;;;;;;7.79;60.58;98647.98;112425;1242;22013;-77
2023/03/07 09:20:10;;;;;;;57.90;51.90;;;;;;;7.77;59.87;98642.38;112181;1242;23399;-77
2023/03/07 09:22:41;;;;;;;52.70;47.40;;;;;;;7.90;60.70;98638.40;112133;1246;21996;-79
2023/03/07 09:25:10;;;;;;;55.30;49.50;;;;;;;8.18;61.21;98630.96;112011;1240;23719;-76
2023/03/07 09:27:44;;;;;;;52.50;47.20;;;;;;;8.33;59.41;98625.10;112570;1240;22944;-76
2023/03/07 09:30:14;;;;;;;45.80;41.10;;;;;;;8.21;57.85;98621.97;112800;1240;23164;-77
2023/03/07 09:32:45;;;;;;;45.80;41.20;;;;;;;8.11;58.02;98624.43;112631;1240;21936;-76
2023/03/07 09:35:14;;;;;;;45.10;40.70;;;;;;;8.19;59.12;98619.80;112924;1240;21947;-79
2023/03/07 09:37:43;;;;;;;36.20;32.60;;;;;;;8.45;59.34;98609.89;112642;1240;22006;-81
2023/03/07 09:40:24;;;;;;;36.30;32.90;;;;;;;8.60;58.67;98608.03;112710;1236;23012;-77
2023/03/07 09:43:22;;;;;;;38.50;34.70;;;;;;;8.73;58.53;98604.64;113160;1236;23624;-79
2023/03/07 09:46:53;;;;;;;39.80;35.60;;;;;;;8.72;57.05;98593.80;113110;1236;21967;-79
2023/03/07 09:49:49;;;;;;;33.20;30.00;;;;;;;8.53;56.72;98592.13;112552;1242;23681;-78
2023/03/07 09:52:40;;;;;;;35.10;31.70;;;;;;;8.60;57.04;98588.27;112433;1243;22619;-77
2023/03/07 09:55:16;;;;;;;37.60;33.70;;;;;;;8.83;57.12;98582.90;112664;1240;23731;-77
2023/03/07 09:58:03;;;;;;;36.80;33.00;;;;;;;9.16;57.45;98582.70;112503;1243;22073;-79
2023/03/07 10:00:44;;;;;;;30.80;27.80;;;;;;;9.49;56.26;98579.85;111982;1249;23083;-80
2023/03/07 10:03:39;;;;;;;31.70;28.80;;;;;;;9.55;54.95;98578.75;111808;1249;23028;-79
2023/03/07 10:06:37;;;;;;;30.60;27.80;;;;;;;9.47;54.40;98579.63;111966;1249;23710;-78
2023/03/07 10:09:25;;;;;;;32.10;28.80;;;;;;;9.39;53.96;98578.36;112085;1249;23769;-79
2023/03/07 10:12:31;;;;;;;35.90;32.30;;;;;;;9.24;53.51;98575.10;112026;1245;21958;-80
2023/03/07 10:15:29;;;;;;;30.40;27.50;;;;;;;9.04;53.59;98572.17;111937;1249;22281;-78
2023/03/07 10:18:28;;;;;;;29.80;26.80;;;;;;;8.83;53.50;98570.78;111266;1251;22022;-79
2023/03/07 10:21:38;;;;;;;27.30;24.60;;;;;;;8.61;53.24;98569.65;111783;1251;23025;-78
2023/03/07 10:24:55;;;;;;;27.50;24.80;;;;;;;8.31;53.32;98569.25;111104;1257;23770;-79
2023/03/07 10:27:34;;;;;;;28.10;25.30;;;;;;;8.26;53.71;98567.99;111476;1254;21993;-81
2023/03/07 10:30:16;;;;;;;26.60;24.00;;;;;;;8.47;54.01;98565.39;111592;1254;21962;-79
2023/03/07 10:32:59;;;;;;;27.40;24.80;;;;;;;8.79;53.69;98562.67;111721;1254;21993;-79
2023/03/07 10:35:41;;;;;;;28.30;25.50;;;;;;;9.17;53.36;98558.02;111494;1249;22987;-79
2023/03/07 10:38:33;;;;;;;26.80;24.20;;;;;;;9.47;52.72;98559.30;111614;1249;21981;-77
2023/03/07 10:41:16;;;;;;;26.20;23.70;;;;;;;9.60;51.76;98550.67;112047;1249;21996;-78
2023/03/07 10:43:51;;;;;;;22.70;20.50;;;;;;;10.00;51.92;98547.27;111823;1249;21957;-79
2023/03/07 10:46:28;;;;;;;23.90;21.70;;;;;;;10.52;51.28;98543.06;111725;1248;21950;-80
2023/03/07 10:49:06;;;;;;;27.50;24.90;;;;;;;10.57;49.99;98541.71;111520;1252;23472;-80
2023/03/07 10:52:31;;;;;;;27.30;24.80;;;;;;;10.27;49.54;98539.99;112003;1246;21968;-78
2023/03/07 10:55:41;;;;;;;26.40;23.90;;;;;;;9.68;49.27;98539.06;112207;1246;21965;-79
2023/03/07 10:58:25;;;;;;;24.30;21.60;;;;;;;8.94;49.39;98536.31;111748;1251;23594;-79
2023/03/07 11:01:05;;;;;;;26.90;24.30;;;;;;;8.41;49.90;98533.88;112062;1243;21959;-80
2023/03/07 11:03:56;;;;;;;26.30;23.80;;;;;;;8.11;50.54;98530.86;112574;1241;22637;-80
2023/03/07 11:06:37;;;;;;;28.60;25.70;;;;;;;7.89;51.14;98527.94;113144;1240;21953;-79
2023/03/07 11:09:24;;;;;;;29.10;26.20;;;;;;;7.74;51.52;98529.27;113253;1240;22024;-79
2023/03/07 11:12:19;;;;;;;26.00;23.30;;;;;;;7.64;52.06;98533.64;112691;1240;23062;-79
2023/03/07 11:15:20;;;;;;;41.30;35.70;;;;;;;7.57;52.35;98529.55;113048;1241;21990;-80
2023/03/07 11:17:51;;;;;;;33.10;29.50;;;;;;;7.52;52.63;98527.20;113797;1232;21966;-82
2023/03/07 11:20:23;;;;;;;28.20;25.30;;;;;;;7.49;52.71;98531.70;113653;1237;21906;-80
2023/03/07 11:23:24;;;;;;;28.10;24.50;;;;;;;7.38;52.71;98530.56;113239;1237;21967;-81
2023/03/07 11:26:23;;;;;;;27.20;24.40;;;;;;;7.14;52.90;98526.83;113557;1237;21960;-81
2023/03/07 11:29:09;;;;;;;25.60;23.10;;;;;;;6.88;53.26;98527.63;112797;1244;21981;-80
2023/03/07 11:32:01;;;;;;;27.80;24.90;;;;;;;6.68;53.58;98529.51;112687;1244;23741;-83
2023/03/07 11:34:58;;;;;;;25.60;23.00;;;;;;;6.58;54.08;98533.84;112520;1244;21964;-81
2023/03/07 11:38:14;;;;;;;22.00;19.90;;;;;;;6.50;54.40;98534.75;112602;1241;21962;-80
2023/03/07 11:41:37;;;;;;;22.90;20.60;;;;;;;6.32;54.61;98529.08;112037;1247;21965;-81
2023/03/07 11:45:08;;;;;;;22.10;19.70;;;;;;;6.19;54.95;98529.02;112047;1248;21984;-81
2023/03/07 11:48:13;;;;;;;30.80;27.50;;;;;;;6.06;55.26;98528.11;112148;1247;21969;-81
2023/03/07 11:50:52;;;;;;;27.00;24.20;;;;;;;6.00;55.48;98523.02;112265;1247;22836;-77
2023/03/07 11:54:01;;;;;;;26.10;23.10;;;;;;;5.99;55.86;98521.88;112284;1241;22011;-79